sensor_id;sensor_type;location;lat;lon;timestamp;temperature;humidity
12130;DHT22;6128;59.340;18.040;2022-07-06T00:00:01;16.70;99.90
12130;DHT22;6128;59.340;18.040;2022-07-06T00:02:30;16.90;99.90
12130;DHT22;6128;59.340;18.040;2022-07-06T00:04:59;16.90;99.90
12130;DHT22;6128;59.340;18.040;2022-07-06T00:07:29;16.80;99.90
12130;DHT22;6128;59.340;18.040;2022-07-06T00:09:58;16.80;99.90
12130;DHT22;6128;59.340;18.040;2022-07-06T00:12:39;16.70;99.90
12130;DHT22;6128;59.340;18.040;2022-07-06T00:15:12;16.50;99.90
12130;DHT22;6128;59.340;18.040;2022-07-06T00:17:39;16.40;99.90
12130;DHT22;6128;59.340;18.040;2022-07-06T00:20:26;16.40;99.90
12130;DHT22;6128;59.340;18.040;2022-07-06T00:22:53;16.50;99.90
12130;DHT22;6128;59.340;18.040;2022-07-06T00:25:36;16.50;99.90
12130;DHT22;6128;59.340;18.040;2022-07-06T00:28:08;16.40;99.90
12130;DHT22;6128;59.340;18.040;2022-07-06T00:30:35;16.40;99.90
12130;DHT22;6128;59.340;18.040;2022-07-06T00:33:04;16.30;99.90
12130;DHT22;6128;59.340;18.040;2022-07-06T00:35:35;16.20;99.90
12130;DHT22;6128;59.340;18.040;2022-07-06T00:38:03;16.20;99.90
12130;DHT22;6128;59.340;18.040;2022-07-06T00:40:33;16.20;99.90
12130;DHT22;6128;59.340;18.040;2022-07-06T00:43:00;16.20;99.90
12130;DHT22;6128;59.340;18.040;2022-07-06T00:45:27;16.20;99.90
12130;DHT22;6128;59.340;18.040;2022-07-06T00:47:54;16.20;99.90
12130;DHT22;6128;59.340;18.040;2022-07-06T00:50:34;16.10;99.90
12130;DHT22;6128;59.340;18.040;2022-07-06T00:53:02;16.00;99.90
12130;DHT22;6128;59.340;18.040;2022-07-06T00:55:32;15.90;99.90
12130;DHT22;6128;59.340;18.040;2022-07-06T00:58:01;15.80;99.90
12130;DHT22;6128;59.340;18.040;2022-07-06T01:00:33;15.60;99.90
12130;DHT22;6128;59.340;18.040;2022-07-06T01:03:03;15.50;99.90
12130;DHT22;6128;59.340;18.040;2022-07-06T01:08:18;15.50;99.90
12130;DHT22;6128;59.340;18.040;2022-07-06T01:10:48;15.50;99.90
12130;DHT22;6128;59.340;18.040;2022-07-06T01:13:30;15.50;99.90
12130;DHT22;6128;59.340;18.040;2022-07-06T01:15:58;15.50;99.90
12130;DHT22;6128;59.340;18.040;2022-07-06T01:18:25;15.60;99.90
12130;DHT22;6128;59.340;18.040;2022-07-06T01:21:06;15.60;99.90
12130;DHT22;6128;59.340;18.040;2022-07-06T01:23:39;15.60;99.90
12130;DHT22;6128;59.340;18.040;2022-07-06T01:26:12;15.70;99.90
12130;DHT22;6128;59.340;18.040;2022-07-06T01:28:40;15.70;99.90
12130;DHT22;6128;59.340;18.040;2022-07-06T01:31:22;15.60;99.90
12130;DHT22;6128;59.340;18.040;2022-07-06T01:34:03;15.50;99.90
12130;DHT22;6128;59.340;18.040;2022-07-06T01:36:35;15.50;99.90
12130;DHT22;6128;59.340;18.040;2022-07-06T01:39:16;15.40;99.90
12130;DHT22;6128;59.340;18.040;2022-07-06T01:41:58;15.40;99.90
12130;DHT22;6128;59.340;18.040;2022-07-06T01:44:28;15.30;99.90
12130;DHT22;6128;59.340;18.040;2022-07-06T01:46:55;15.30;99.90
12130;DHT22;6128;59.340;18.040;2022-07-06T01:49:23;15.30;99.90
12130;DHT22;6128;59.340;18.040;2022-07-06T01:52:09;15.30;99.90
12130;DHT22;6128;59.340;18.040;2022-07-06T01:54:36;15.20;99.90
12130;DHT22;6128;59.340;18.040;2022-07-06T01:57:04;15.30;99.90
12130;DHT22;6128;59.340;18.040;2022-07-06T01:59:31;15.30;99.90
12130;DHT22;6128;59.340;18.040;2022-07-06T02:01:58;15.30;99.90
12130;DHT22;6128;59.340;18.040;2022-07-06T02:04:25;15.20;99.90
12130;DHT22;6128;59.340;18.040;2022-07-06T02:06:54;15.20;99.90
12130;DHT22;6128;59.340;18.040;2022-07-06T02:09:26;15.10;99.90
12130;DHT22;6128;59.340;18.040;2022-07-06T02:11:53;15.00;99.90
12130;DHT22;6128;59.340;18.040;2022-07-06T02:14:21;15.00;99.90
12130;DHT22;6128;59.340;18.040;2022-07-06T02:16:49;14.90;99.90
12130;DHT22;6128;59.340;18.040;2022-07-06T02:19:17;14.90;99.90
12130;DHT22;6128;59.340;18.040;2022-07-06T02:21:58;14.90;99.90
12130;DHT22;6128;59.340;18.040;2022-07-06T02:24:33;14.90;99.90
12130;DHT22;6128;59.340;18.040;2022-07-06T02:27:03;14.80;99.90
12130;DHT22;6128;59.340;18.040;2022-07-06T02:29:33;14.90;99.90
12130;DHT22;6128;59.340;18.040;2022-07-06T02:32:00;14.90;99.90
12130;DHT22;6128;59.340;18.040;2022-07-06T02:34:29;14.90;99.90
12130;DHT22;6128;59.340;18.040;2022-07-06T02:36:56;14.90;99.90
12130;DHT22;6128;59.340;18.040;2022-07-06T02:39:33;14.90;99.90
12130;DHT22;6128;59.340;18.040;2022-07-06T02:42:01;14.90;99.90
12130;DHT22;6128;59.340;18.040;2022-07-06T02:44:28;14.90;99.90
12130;DHT22;6128;59.340;18.040;2022-07-06T02:46:57;14.90;99.90
12130;DHT22;6128;59.340;18.040;2022-07-06T02:49:24;14.90;99.90
12130;DHT22;6128;59.340;18.040;2022-07-06T02:51:54;14.90;99.90
12130;DHT22;6128;59.340;18.040;2022-07-06T02:54:23;15.00;99.90
12130;DHT22;6128;59.340;18.040;2022-07-06T02:57:07;15.00;99.90
12130;DHT22;6128;59.340;18.040;2022-07-06T02:59:36;15.00;99.90
12130;DHT22;6128;59.340;18.040;2022-07-06T03:02:17;15.00;99.90
12130;DHT22;6128;59.340;18.040;2022-07-06T03:04:51;15.10;99.90
12130;DHT22;6128;59.340;18.040;2022-07-06T03:07:18;15.10;99.90
12130;DHT22;6128;59.340;18.040;2022-07-06T03:09:52;15.10;99.90
12130;DHT22;6128;59.340;18.040;2022-07-06T03:12:22;15.20;99.90
12130;DHT22;6128;59.340;18.040;2022-07-06T03:14:49;15.20;99.90
12130;DHT22;6128;59.340;18.040;2022-07-06T03:17:17;15.10;99.90
12130;DHT22;6128;59.340;18.040;2022-07-06T03:19:55;15.10;99.90
12130;DHT22;6128;59.340;18.040;2022-07-06T03:22:36;15.10;99.90
12130;DHT22;6128;59.340;18.040;2022-07-06T03:25:04;15.20;99.90
12130;DHT22;6128;59.340;18.040;2022-07-06T03:27:48;15.30;99.90
12130;DHT22;6128;59.340;18.040;2022-07-06T03:30:17;15.40;99.90
12130;DHT22;6128;59.340;18.040;2022-07-06T03:32:45;15.40;99.90
12130;DHT22;6128;59.340;18.040;2022-07-06T03:35:12;15.70;99.90
12130;DHT22;6128;59.340;18.040;2022-07-06T03:37:39;15.90;99.90
12130;DHT22;6128;59.340;18.040;2022-07-06T03:40:07;16.00;99.90
12130;DHT22;6128;59.340;18.040;2022-07-06T03:42:37;15.90;99.90
12130;DHT22;6128;59.340;18.040;2022-07-06T03:45:07;15.80;99.90
12130;DHT22;6128;59.340;18.040;2022-07-06T03:47:36;15.70;99.90
12130;DHT22;6128;59.340;18.040;2022-07-06T03:50:20;15.80;99.90
12130;DHT22;6128;59.340;18.040;2022-07-06T03:53:01;15.90;99.90
12130;DHT22;6128;59.340;18.040;2022-07-06T03:55:44;16.00;99.90
12130;DHT22;6128;59.340;18.040;2022-07-06T03:58:37;15.90;99.90
12130;DHT22;6128;59.340;18.040;2022-07-06T04:01:05;15.70;99.90
12130;DHT22;6128;59.340;18.040;2022-07-06T04:03:32;15.70;99.90
12130;DHT22;6128;59.340;18.040;2022-07-06T04:06:01;15.70;99.90
12130;DHT22;6128;59.340;18.040;2022-07-06T04:08:32;15.60;99.90
12130;DHT22;6128;59.340;18.040;2022-07-06T04:11:00;15.80;99.90
12130;DHT22;6128;59.340;18.040;2022-07-06T04:13:27;15.80;99.90
12130;DHT22;6128;59.340;18.040;2022-07-06T04:15:57;15.80;99.90
12130;DHT22;6128;59.340;18.040;2022-07-06T04:18:24;15.80;99.90
12130;DHT22;6128;59.340;18.040;2022-07-06T04:20:52;15.80;99.90
12130;DHT22;6128;59.340;18.040;2022-07-06T04:23:19;15.80;99.90
12130;DHT22;6128;59.340;18.040;2022-07-06T04:25:48;15.90;99.90
12130;DHT22;6128;59.340;18.040;2022-07-06T04:28:29;16.00;99.90
12130;DHT22;6128;59.340;18.040;2022-07-06T04:31:00;16.20;99.90
12130;DHT22;6128;59.340;18.040;2022-07-06T04:33:37;16.30;99.90
12130;DHT22;6128;59.340;18.040;2022-07-06T04:36:05;16.30;99.90
12130;DHT22;6128;59.340;18.040;2022-07-06T04:38:33;16.30;99.90
12130;DHT22;6128;59.340;18.040;2022-07-06T04:41:00;16.70;99.90
12130;DHT22;6128;59.340;18.040;2022-07-06T04:43:29;17.00;99.90
12130;DHT22;6128;59.340;18.040;2022-07-06T04:46:00;17.30;99.90
12130;DHT22;6128;59.340;18.040;2022-07-06T04:48:28;17.30;99.90
12130;DHT22;6128;59.340;18.040;2022-07-06T04:51:10;17.20;99.90
12130;DHT22;6128;59.340;18.040;2022-07-06T04:53:38;17.20;99.90
12130;DHT22;6128;59.340;18.040;2022-07-06T04:56:17;17.10;99.90
12130;DHT22;6128;59.340;18.040;2022-07-06T04:58:49;17.10;99.90
12130;DHT22;6128;59.340;18.040;2022-07-06T05:01:18;16.90;99.90
12130;DHT22;6128;59.340;18.040;2022-07-06T05:03:48;16.90;99.90
12130;DHT22;6128;59.340;18.040;2022-07-06T05:06:17;17.00;99.90
12130;DHT22;6128;59.340;18.040;2022-07-06T05:08:45;17.10;99.90
12130;DHT22;6128;59.340;18.040;2022-07-06T05:11:14;17.10;99.90
12130;DHT22;6128;59.340;18.040;2022-07-06T05:13:42;17.30;99.90
12130;DHT22;6128;59.340;18.040;2022-07-06T05:16:10;17.30;99.90
12130;DHT22;6128;59.340;18.040;2022-07-06T05:18:38;17.30;99.90
12130;DHT22;6128;59.340;18.040;2022-07-06T05:21:05;17.30;99.90
12130;DHT22;6128;59.340;18.040;2022-07-06T05:23:35;17.20;99.90
12130;DHT22;6128;59.340;18.040;2022-07-06T05:26:03;17.30;99.90
12130;DHT22;6128;59.340;18.040;2022-07-06T05:28:30;17.40;99.90
12130;DHT22;6128;59.340;18.040;2022-07-06T05:31:12;17.40;99.90
12130;DHT22;6128;59.340;18.040;2022-07-06T05:33:42;17.40;99.90
12130;DHT22;6128;59.340;18.040;2022-07-06T05:36:09;17.30;99.90
12130;DHT22;6128;59.340;18.040;2022-07-06T05:38:36;17.30;99.90
12130;DHT22;6128;59.340;18.040;2022-07-06T05:41:06;17.30;99.90
12130;DHT22;6128;59.340;18.040;2022-07-06T05:43:35;17.40;99.90
12130;DHT22;6128;59.340;18.040;2022-07-06T05:46:02;17.50;99.90
12130;DHT22;6128;59.340;18.040;2022-07-06T05:48:34;17.60;99.90
12130;DHT22;6128;59.340;18.040;2022-07-06T05:51:26;17.80;99.90
12130;DHT22;6128;59.340;18.040;2022-07-06T05:53:54;18.20;99.90
12130;DHT22;6128;59.340;18.040;2022-07-06T05:56:36;18.80;99.90
12130;DHT22;6128;59.340;18.040;2022-07-06T05:59:03;20.00;99.90
12130;DHT22;6128;59.340;18.040;2022-07-06T06:01:30;21.10;99.90
12130;DHT22;6128;59.340;18.040;2022-07-06T06:03:57;22.20;99.90
12130;DHT22;6128;59.340;18.040;2022-07-06T06:06:27;23.30;99.90
12130;DHT22;6128;59.340;18.040;2022-07-06T06:08:56;24.20;99.90
12130;DHT22;6128;59.340;18.040;2022-07-06T06:11:24;25.20;99.90
12130;DHT22;6128;59.340;18.040;2022-07-06T06:13:52;25.90;99.90
12130;DHT22;6128;59.340;18.040;2022-07-06T06:16:22;26.40;99.90
12130;DHT22;6128;59.340;18.040;2022-07-06T06:18:49;26.70;99.90
12130;DHT22;6128;59.340;18.040;2022-07-06T06:21:19;26.90;99.90
12130;DHT22;6128;59.340;18.040;2022-07-06T06:23:48;27.40;99.90
12130;DHT22;6128;59.340;18.040;2022-07-06T06:26:17;27.30;99.90
12130;DHT22;6128;59.340;18.040;2022-07-06T06:28:44;27.30;99.90
12130;DHT22;6128;59.340;18.040;2022-07-06T06:31:17;27.30;99.90
12130;DHT22;6128;59.340;18.040;2022-07-06T06:33:46;27.70;99.90
12130;DHT22;6128;59.340;18.040;2022-07-06T06:36:13;27.50;99.90
12130;DHT22;6128;59.340;18.040;2022-07-06T06:38:41;27.60;99.90
12130;DHT22;6128;59.340;18.040;2022-07-06T06:41:36;28.20;99.90
12130;DHT22;6128;59.340;18.040;2022-07-06T06:44:06;28.70;99.90
12130;DHT22;6128;59.340;18.040;2022-07-06T06:46:49;28.70;99.90
12130;DHT22;6128;59.340;18.040;2022-07-06T06:49:25;27.90;99.90
12130;DHT22;6128;59.340;18.040;2022-07-06T06:52:06;27.80;99.90
12130;DHT22;6128;59.340;18.040;2022-07-06T06:54:35;27.70;99.90
12130;DHT22;6128;59.340;18.040;2022-07-06T06:57:08;27.10;99.90
12130;DHT22;6128;59.340;18.040;2022-07-06T06:59:36;26.40;99.90
12130;DHT22;6128;59.340;18.040;2022-07-06T07:02:18;26.40;99.90
12130;DHT22;6128;59.340;18.040;2022-07-06T07:04:47;26.90;99.90
12130;DHT22;6128;59.340;18.040;2022-07-06T07:07:14;27.10;99.90
12130;DHT22;6128;59.340;18.040;2022-07-06T07:09:47;26.60;99.90
12130;DHT22;6128;59.340;18.040;2022-07-06T07:12:17;26.20;99.90
12130;DHT22;6128;59.340;18.040;2022-07-06T07:14:45;25.90;99.90
12130;DHT22;6128;59.340;18.040;2022-07-06T07:17:13;25.50;99.90
12130;DHT22;6128;59.340;18.040;2022-07-06T07:19:48;25.50;99.90
12130;DHT22;6128;59.340;18.040;2022-07-06T07:22:16;26.10;99.90
12130;DHT22;6128;59.340;18.040;2022-07-06T07:24:44;26.40;99.90
12130;DHT22;6128;59.340;18.040;2022-07-06T07:27:16;25.90;99.90
12130;DHT22;6128;59.340;18.040;2022-07-06T07:29:45;25.80;99.80
12130;DHT22;6128;59.340;18.040;2022-07-06T07:32:12;26.00;99.80
12130;DHT22;6128;59.340;18.040;2022-07-06T07:34:39;26.00;99.80
12130;DHT22;6128;59.340;18.040;2022-07-06T07:37:06;25.70;99.80
12130;DHT22;6128;59.340;18.040;2022-07-06T07:39:33;25.80;99.70
12130;DHT22;6128;59.340;18.040;2022-07-06T07:42:00;26.20;99.60
12130;DHT22;6128;59.340;18.040;2022-07-06T07:44:29;26.60;99.60
12130;DHT22;6128;59.340;18.040;2022-07-06T07:46:56;27.20;99.40
12130;DHT22;6128;59.340;18.040;2022-07-06T07:49:25;27.50;99.20
12130;DHT22;6128;59.340;18.040;2022-07-06T07:51:53;27.60;99.00
12130;DHT22;6128;59.340;18.040;2022-07-06T07:54:21;27.60;98.70
12130;DHT22;6128;59.340;18.040;2022-07-06T07:56:52;27.70;98.40
12130;DHT22;6128;59.340;18.040;2022-07-06T07:59:20;27.60;98.10
12130;DHT22;6128;59.340;18.040;2022-07-06T08:01:52;27.40;97.80
12130;DHT22;6128;59.340;18.040;2022-07-06T08:04:19;26.80;97.60
12130;DHT22;6128;59.340;18.040;2022-07-06T08:06:47;26.60;97.40
12130;DHT22;6128;59.340;18.040;2022-07-06T08:09:14;26.60;97.20
12130;DHT22;6128;59.340;18.040;2022-07-06T08:11:42;26.70;97.00
12130;DHT22;6128;59.340;18.040;2022-07-06T08:14:09;26.80;96.90
12130;DHT22;6128;59.340;18.040;2022-07-06T08:16:37;26.70;96.80
12130;DHT22;6128;59.340;18.040;2022-07-06T08:19:05;26.60;96.70
12130;DHT22;6128;59.340;18.040;2022-07-06T08:21:33;26.40;96.50
12130;DHT22;6128;59.340;18.040;2022-07-06T08:24:01;26.30;96.40
12130;DHT22;6128;59.340;18.040;2022-07-06T08:26:30;26.20;96.40
12130;DHT22;6128;59.340;18.040;2022-07-06T08:28:57;26.10;96.40
12130;DHT22;6128;59.340;18.040;2022-07-06T08:31:26;26.20;96.40
12130;DHT22;6128;59.340;18.040;2022-07-06T08:33:54;26.40;96.40
12130;DHT22;6128;59.340;18.040;2022-07-06T08:36:23;26.50;96.40
12130;DHT22;6128;59.340;18.040;2022-07-06T08:38:51;26.50;96.40
12130;DHT22;6128;59.340;18.040;2022-07-06T08:41:21;26.60;96.30
12130;DHT22;6128;59.340;18.040;2022-07-06T08:43:50;26.50;96.20
12130;DHT22;6128;59.340;18.040;2022-07-06T08:46:19;26.50;96.10
12130;DHT22;6128;59.340;18.040;2022-07-06T08:48:47;26.20;96.10
12130;DHT22;6128;59.340;18.040;2022-07-06T08:51:16;26.20;96.10
12130;DHT22;6128;59.340;18.040;2022-07-06T08:53:46;26.40;96.00
12130;DHT22;6128;59.340;18.040;2022-07-06T08:56:18;26.30;96.00
12130;DHT22;6128;59.340;18.040;2022-07-06T08:58:46;26.10;96.00
12130;DHT22;6128;59.340;18.040;2022-07-06T09:01:17;26.10;96.00
12130;DHT22;6128;59.340;18.040;2022-07-06T09:03:48;26.00;96.10
12130;DHT22;6128;59.340;18.040;2022-07-06T09:06:22;26.10;96.10
12130;DHT22;6128;59.340;18.040;2022-07-06T09:08:57;26.20;96.20
12130;DHT22;6128;59.340;18.040;2022-07-06T09:11:25;26.40;96.30
12130;DHT22;6128;59.340;18.040;2022-07-06T09:13:53;26.70;96.50
12130;DHT22;6128;59.340;18.040;2022-07-06T09:16:26;26.70;96.60
12130;DHT22;6128;59.340;18.040;2022-07-06T09:18:55;26.60;96.30
12130;DHT22;6128;59.340;18.040;2022-07-06T09:21:26;26.70;96.40
12130;DHT22;6128;59.340;18.040;2022-07-06T09:23:59;27.10;96.40
12130;DHT22;6128;59.340;18.040;2022-07-06T09:26:28;27.90;96.50
12130;DHT22;6128;59.340;18.040;2022-07-06T09:28:57;28.70;96.60
12130;DHT22;6128;59.340;18.040;2022-07-06T09:31:25;28.40;96.50
12130;DHT22;6128;59.340;18.040;2022-07-06T09:33:54;27.60;96.30
12130;DHT22;6128;59.340;18.040;2022-07-06T09:36:37;26.50;95.60
12130;DHT22;6128;59.340;18.040;2022-07-06T09:39:23;25.40;94.70
12130;DHT22;6128;59.340;18.040;2022-07-06T09:41:52;24.90;94.20
12130;DHT22;6128;59.340;18.040;2022-07-06T09:44:21;24.60;93.90
12130;DHT22;6128;59.340;18.040;2022-07-06T09:46:50;24.30;93.50
12130;DHT22;6128;59.340;18.040;2022-07-06T09:49:19;24.20;93.40
12130;DHT22;6128;59.340;18.040;2022-07-06T09:51:47;24.10;93.20
12130;DHT22;6128;59.340;18.040;2022-07-06T09:54:17;24.10;93.20
12130;DHT22;6128;59.340;18.040;2022-07-06T09:56:50;24.00;93.30
12130;DHT22;6128;59.340;18.040;2022-07-06T09:59:19;23.90;93.30
12130;DHT22;6128;59.340;18.040;2022-07-06T10:01:47;23.50;93.40
12130;DHT22;6128;59.340;18.040;2022-07-06T10:04:17;23.20;93.40
12130;DHT22;6128;59.340;18.040;2022-07-06T10:06:46;23.20;93.50
12130;DHT22;6128;59.340;18.040;2022-07-06T10:09:13;23.10;93.50
12130;DHT22;6128;59.340;18.040;2022-07-06T10:11:43;23.00;93.50
12130;DHT22;6128;59.340;18.040;2022-07-06T10:14:17;22.80;93.50
12130;DHT22;6128;59.340;18.040;2022-07-06T10:16:45;22.80;93.50
12130;DHT22;6128;59.340;18.040;2022-07-06T10:19:16;22.80;93.50
12130;DHT22;6128;59.340;18.040;2022-07-06T10:21:48;23.00;93.60
12130;DHT22;6128;59.340;18.040;2022-07-06T10:24:21;23.10;93.50
12130;DHT22;6128;59.340;18.040;2022-07-06T10:27:02;23.10;93.50
12130;DHT22;6128;59.340;18.040;2022-07-06T10:29:59;22.90;93.40
12130;DHT22;6128;59.340;18.040;2022-07-06T10:32:43;22.90;93.30
12130;DHT22;6128;59.340;18.040;2022-07-06T10:35:25;23.00;93.30
12130;DHT22;6128;59.340;18.040;2022-07-06T10:38:08;22.90;93.20
12130;DHT22;6128;59.340;18.040;2022-07-06T10:41:01;22.90;93.20
12130;DHT22;6128;59.340;18.040;2022-07-06T10:43:51;22.90;93.20
12130;DHT22;6128;59.340;18.040;2022-07-06T10:46:28;23.00;93.20
12130;DHT22;6128;59.340;18.040;2022-07-06T10:48:56;22.90;93.20
12130;DHT22;6128;59.340;18.040;2022-07-06T10:51:41;22.90;93.20
12130;DHT22;6128;59.340;18.040;2022-07-06T10:54:23;22.90;93.30
12130;DHT22;6128;59.340;18.040;2022-07-06T10:56:51;23.00;93.30
12130;DHT22;6128;59.340;18.040;2022-07-06T10:59:23;22.90;93.30
12130;DHT22;6128;59.340;18.040;2022-07-06T11:02:18;23.00;93.50
12130;DHT22;6128;59.340;18.040;2022-07-06T11:04:53;23.10;93.60
12130;DHT22;6128;59.340;18.040;2022-07-06T11:07:21;23.20;93.60
12130;DHT22;6128;59.340;18.040;2022-07-06T11:10:02;23.30;93.70
12130;DHT22;6128;59.340;18.040;2022-07-06T11:12:29;23.40;93.80
12130;DHT22;6128;59.340;18.040;2022-07-06T11:14:57;23.40;93.90
12130;DHT22;6128;59.340;18.040;2022-07-06T11:17:29;23.40;93.90
12130;DHT22;6128;59.340;18.040;2022-07-06T11:19:58;23.40;93.90
12130;DHT22;6128;59.340;18.040;2022-07-06T11:22:47;23.50;93.90
12130;DHT22;6128;59.340;18.040;2022-07-06T11:25:29;23.50;93.70
12130;DHT22;6128;59.340;18.040;2022-07-06T11:27:57;23.50;93.60
12130;DHT22;6128;59.340;18.040;2022-07-06T11:30:32;23.50;93.40
12130;DHT22;6128;59.340;18.040;2022-07-06T11:33:34;23.20;93.20
12130;DHT22;6128;59.340;18.040;2022-07-06T11:36:18;22.80;93.00
12130;DHT22;6128;59.340;18.040;2022-07-06T11:38:49;22.80;92.80
12130;DHT22;6128;59.340;18.040;2022-07-06T11:41:30;22.80;92.80
12130;DHT22;6128;59.340;18.040;2022-07-06T11:43:59;22.90;92.80
12130;DHT22;6128;59.340;18.040;2022-07-06T11:46:31;22.90;92.80
12130;DHT22;6128;59.340;18.040;2022-07-06T11:49:15;23.00;93.00
12130;DHT22;6128;59.340;18.040;2022-07-06T11:51:48;23.10;93.20
12130;DHT22;6128;59.340;18.040;2022-07-06T11:54:20;23.10;93.30
12130;DHT22;6128;59.340;18.040;2022-07-06T11:56:54;23.10;93.40
12130;DHT22;6128;59.340;18.040;2022-07-06T11:59:23;23.00;93.40
12130;DHT22;6128;59.340;18.040;2022-07-06T12:02:06;23.00;93.30
12130;DHT22;6128;59.340;18.040;2022-07-06T12:04:37;22.90;93.30
12130;DHT22;6128;59.340;18.040;2022-07-06T12:07:07;22.90;93.20
12130;DHT22;6128;59.340;18.040;2022-07-06T12:09:37;23.00;93.20
12130;DHT22;6128;59.340;18.040;2022-07-06T12:12:19;23.10;93.10
12130;DHT22;6128;59.340;18.040;2022-07-06T12:14:47;23.10;93.10
12130;DHT22;6128;59.340;18.040;2022-07-06T12:17:16;23.30;93.10
12130;DHT22;6128;59.340;18.040;2022-07-06T12:19:44;23.30;93.00
12130;DHT22;6128;59.340;18.040;2022-07-06T12:22:11;23.20;93.00
12130;DHT22;6128;59.340;18.040;2022-07-06T12:24:43;23.20;92.90
12130;DHT22;6128;59.340;18.040;2022-07-06T12:27:21;23.20;92.90
12130;DHT22;6128;59.340;18.040;2022-07-06T12:29:48;23.20;92.80
12130;DHT22;6128;59.340;18.040;2022-07-06T12:32:18;23.20;92.90
12130;DHT22;6128;59.340;18.040;2022-07-06T12:35:05;23.20;92.90
12130;DHT22;6128;59.340;18.040;2022-07-06T12:37:34;23.20;93.00
12130;DHT22;6128;59.340;18.040;2022-07-06T12:40:13;23.30;93.10
12130;DHT22;6128;59.340;18.040;2022-07-06T12:42:48;23.60;93.10
12130;DHT22;6128;59.340;18.040;2022-07-06T12:45:26;23.70;93.10
12130;DHT22;6128;59.340;18.040;2022-07-06T12:47:57;23.80;93.10
12130;DHT22;6128;59.340;18.040;2022-07-06T12:50:35;23.90;93.00
12130;DHT22;6128;59.340;18.040;2022-07-06T12:53:06;23.80;92.70
12130;DHT22;6128;59.340;18.040;2022-07-06T12:56:08;23.90;92.50
12130;DHT22;6128;59.340;18.040;2022-07-06T12:58:38;24.00;92.30
12130;DHT22;6128;59.340;18.040;2022-07-06T13:01:14;24.10;92.30
12130;DHT22;6128;59.340;18.040;2022-07-06T13:03:42;24.10;92.20
12130;DHT22;6128;59.340;18.040;2022-07-06T13:06:11;24.20;92.20
12130;DHT22;6128;59.340;18.040;2022-07-06T13:08:42;24.20;92.30
12130;DHT22;6128;59.340;18.040;2022-07-06T13:11:10;24.00;92.00
12130;DHT22;6128;59.340;18.040;2022-07-06T13:13:43;24.10;91.90
12130;DHT22;6128;59.340;18.040;2022-07-06T13:16:28;24.20;91.60
12130;DHT22;6128;59.340;18.040;2022-07-06T13:19:00;24.30;91.40
12130;DHT22;6128;59.340;18.040;2022-07-06T13:21:29;24.40;91.30
12130;DHT22;6128;59.340;18.040;2022-07-06T13:24:10;24.50;91.20
12130;DHT22;6128;59.340;18.040;2022-07-06T13:26:39;24.60;91.30
12130;DHT22;6128;59.340;18.040;2022-07-06T13:29:12;24.60;91.40
12130;DHT22;6128;59.340;18.040;2022-07-06T13:31:40;24.40;91.40
12130;DHT22;6128;59.340;18.040;2022-07-06T13:34:09;24.20;91.40
12130;DHT22;6128;59.340;18.040;2022-07-06T13:36:52;24.10;91.30
12130;DHT22;6128;59.340;18.040;2022-07-06T13:39:19;24.10;91.20
12130;DHT22;6128;59.340;18.040;2022-07-06T13:41:53;24.00;91.10
12130;DHT22;6128;59.340;18.040;2022-07-06T13:44:22;23.80;91.10
12130;DHT22;6128;59.340;18.040;2022-07-06T13:47:00;23.80;91.00
12130;DHT22;6128;59.340;18.040;2022-07-06T13:49:27;23.70;91.00
12130;DHT22;6128;59.340;18.040;2022-07-06T13:51:55;23.80;91.10
12130;DHT22;6128;59.340;18.040;2022-07-06T13:54:32;23.80;91.20
12130;DHT22;6128;59.340;18.040;2022-07-06T13:57:02;23.50;91.30
12130;DHT22;6128;59.340;18.040;2022-07-06T13:59:30;23.00;91.50
12130;DHT22;6128;59.340;18.040;2022-07-06T14:01:57;22.80;91.70
12130;DHT22;6128;59.340;18.040;2022-07-06T14:04:25;22.70;91.90
12130;DHT22;6128;59.340;18.040;2022-07-06T14:06:52;22.60;92.10
12130;DHT22;6128;59.340;18.040;2022-07-06T14:09:20;22.30;92.40
12130;DHT22;6128;59.340;18.040;2022-07-06T14:11:47;22.00;92.70
12130;DHT22;6128;59.340;18.040;2022-07-06T14:14:15;21.90;92.90
12130;DHT22;6128;59.340;18.040;2022-07-06T14:16:42;21.70;93.20
12130;DHT22;6128;59.340;18.040;2022-07-06T14:19:10;21.60;93.50
12130;DHT22;6128;59.340;18.040;2022-07-06T14:21:37;21.50;93.70
12130;DHT22;6128;59.340;18.040;2022-07-06T14:24:05;21.50;93.90
12130;DHT22;6128;59.340;18.040;2022-07-06T14:26:33;21.60;94.00
12130;DHT22;6128;59.340;18.040;2022-07-06T14:29:00;21.60;94.10
12130;DHT22;6128;59.340;18.040;2022-07-06T14:31:28;21.60;94.20
12130;DHT22;6128;59.340;18.040;2022-07-06T14:33:55;21.60;94.30
12130;DHT22;6128;59.340;18.040;2022-07-06T14:36:22;21.50;94.50
12130;DHT22;6128;59.340;18.040;2022-07-06T14:38:49;21.50;94.60
12130;DHT22;6128;59.340;18.040;2022-07-06T14:41:17;21.60;94.70
12130;DHT22;6128;59.340;18.040;2022-07-06T14:43:45;21.60;94.90
12130;DHT22;6128;59.340;18.040;2022-07-06T14:46:13;21.60;94.90
12130;DHT22;6128;59.340;18.040;2022-07-06T14:48:40;21.50;95.10
12130;DHT22;6128;59.340;18.040;2022-07-06T14:51:07;21.20;95.20
12130;DHT22;6128;59.340;18.040;2022-07-06T14:53:35;21.10;95.30
12130;DHT22;6128;59.340;18.040;2022-07-06T14:56:05;21.00;95.40
12130;DHT22;6128;59.340;18.040;2022-07-06T14:58:32;20.80;95.60
12130;DHT22;6128;59.340;18.040;2022-07-06T15:01:01;20.80;95.60
12130;DHT22;6128;59.340;18.040;2022-07-06T15:03:30;20.90;95.70
12130;DHT22;6128;59.340;18.040;2022-07-06T15:05:58;20.90;95.70
12130;DHT22;6128;59.340;18.040;2022-07-06T15:08:25;20.80;95.80
12130;DHT22;6128;59.340;18.040;2022-07-06T15:10:52;20.80;95.80
12130;DHT22;6128;59.340;18.040;2022-07-06T15:13:19;20.80;95.80
12130;DHT22;6128;59.340;18.040;2022-07-06T15:15:47;20.80;95.80
12130;DHT22;6128;59.340;18.040;2022-07-06T15:18:16;20.90;95.90
12130;DHT22;6128;59.340;18.040;2022-07-06T15:20:44;20.90;96.00
12130;DHT22;6128;59.340;18.040;2022-07-06T15:23:11;20.90;96.00
12130;DHT22;6128;59.340;18.040;2022-07-06T15:25:39;20.90;96.00
12130;DHT22;6128;59.340;18.040;2022-07-06T15:28:06;20.90;96.10
12130;DHT22;6128;59.340;18.040;2022-07-06T15:30:34;20.90;96.30
12130;DHT22;6128;59.340;18.040;2022-07-06T15:33:01;20.80;96.40
12130;DHT22;6128;59.340;18.040;2022-07-06T15:35:30;20.80;96.60
12130;DHT22;6128;59.340;18.040;2022-07-06T15:37:59;20.80;96.80
12130;DHT22;6128;59.340;18.040;2022-07-06T15:40:26;20.70;97.00
12130;DHT22;6128;59.340;18.040;2022-07-06T15:42:56;20.60;97.20
12130;DHT22;6128;59.340;18.040;2022-07-06T15:45:30;20.60;97.30
12130;DHT22;6128;59.340;18.040;2022-07-06T15:48:04;20.60;97.50
12130;DHT22;6128;59.340;18.040;2022-07-06T15:50:46;20.50;97.60
12130;DHT22;6128;59.340;18.040;2022-07-06T15:53:13;20.50;97.80
12130;DHT22;6128;59.340;18.040;2022-07-06T15:55:44;20.50;98.00
12130;DHT22;6128;59.340;18.040;2022-07-06T15:58:22;20.40;98.20